sensor_id;sensor_type;location;lat;lon;timestamp;temperature;humidity
31799;DHT22;18374;51.136;3.502;2023-01-23T00:01:34;2.40;99.90
31799;DHT22;18374;51.136;3.502;2023-01-23T00:04:03;2.40;99.90
31799;DHT22;18374;51.136;3.502;2023-01-23T00:06:31;2.40;99.90
31799;DHT22;18374;51.136;3.502;2023-01-23T00:08:59;2.30;99.90
31799;DHT22;18374;51.136;3.502;2023-01-23T00:11:28;2.40;99.90
31799;DHT22;18374;51.136;3.502;2023-01-23T00:13:58;2.40;99.90
31799;DHT22;18374;51.136;3.502;2023-01-23T00:16:29;2.40;99.90
31799;DHT22;18374;51.136;3.502;2023-01-23T00:18:58;2.40;99.90
31799;DHT22;18374;51.136;3.502;2023-01-23T00:21:27;2.40;99.90
31799;DHT22;18374;51.136;3.502;2023-01-23T00:23:58;2.40;99.90
31799;DHT22;18374;51.136;3.502;2023-01-23T00:26:29;2.50;99.90
31799;DHT22;18374;51.136;3.502;2023-01-23T00:28:59;2.40;99.90
31799;DHT22;18374;51.136;3.502;2023-01-23T00:31:30;2.40;99.90
31799;DHT22;18374;51.136;3.502;2023-01-23T00:34:02;2.40;99.90
31799;DHT22;18374;51.136;3.502;2023-01-23T00:36:38;2.40;99.90
31799;DHT22;18374;51.136;3.502;2023-01-23T00:39:11;2.50;99.90
31799;DHT22;18374;51.136;3.502;2023-01-23T00:41:44;2.40;99.90
31799;DHT22;18374;51.136;3.502;2023-01-23T00:44:13;2.40;99.90
31799;DHT22;18374;51.136;3.502;2023-01-23T00:46:41;2.40;99.90
31799;DHT22;18374;51.136;3.502;2023-01-23T00:49:09;2.40;99.90
31799;DHT22;18374;51.136;3.502;2023-01-23T00:51:37;2.40;99.90
31799;DHT22;18374;51.136;3.502;2023-01-23T00:54:04;2.40;99.90
31799;DHT22;18374;51.136;3.502;2023-01-23T00:56:32;2.40;99.90
31799;DHT22;18374;51.136;3.502;2023-01-23T00:59:00;2.40;99.90
31799;DHT22;18374;51.136;3.502;2023-01-23T01:01:30;2.40;99.90
31799;DHT22;18374;51.136;3.502;2023-01-23T01:03:59;2.40;99.90
31799;DHT22;18374;51.136;3.502;2023-01-23T01:06:28;2.40;99.90
31799;DHT22;18374;51.136;3.502;2023-01-23T01:08:57;2.40;99.90
31799;DHT22;18374;51.136;3.502;2023-01-23T01:11:25;2.40;99.90
31799;DHT22;18374;51.136;3.502;2023-01-23T01:13:54;2.40;99.90
31799;DHT22;18374;51.136;3.502;2023-01-23T01:16:21;2.40;99.90
31799;DHT22;18374;51.136;3.502;2023-01-23T01:18:50;2.40;99.90
31799;DHT22;18374;51.136;3.502;2023-01-23T01:21:18;2.40;99.90
31799;DHT22;18374;51.136;3.502;2023-01-23T01:23:46;2.40;99.90
31799;DHT22;18374;51.136;3.502;2023-01-23T01:26:14;2.40;99.90
31799;DHT22;18374;51.136;3.502;2023-01-23T01:28:42;2.40;99.90
31799;DHT22;18374;51.136;3.502;2023-01-23T01:31:12;2.30;99.90
31799;DHT22;18374;51.136;3.502;2023-01-23T01:33:41;2.40;99.90
31799;DHT22;18374;51.136;3.502;2023-01-23T01:36:16;2.40;99.90
31799;DHT22;18374;51.136;3.502;2023-01-23T01:38:46;2.40;99.90
31799;DHT22;18374;51.136;3.502;2023-01-23T01:41:14;2.30;99.90
31799;DHT22;18374;51.136;3.502;2023-01-23T01:43:43;2.30;99.90
31799;DHT22;18374;51.136;3.502;2023-01-23T01:46:21;2.30;99.90
31799;DHT22;18374;51.136;3.502;2023-01-23T01:49:25;2.20;99.90
31799;DHT22;18374;51.136;3.502;2023-01-23T01:52:03;2.20;99.90
31799;DHT22;18374;51.136;3.502;2023-01-23T01:54:43;2.20;99.90
31799;DHT22;18374;51.136;3.502;2023-01-23T01:57:17;2.10;99.90
31799;DHT22;18374;51.136;3.502;2023-01-23T01:59:53;2.10;99.90
31799;DHT22;18374;51.136;3.502;2023-01-23T02:02:34;2.20;99.90
31799;DHT22;18374;51.136;3.502;2023-01-23T02:05:07;2.10;99.90
31799;DHT22;18374;51.136;3.502;2023-01-23T02:08:00;2.10;99.90
31799;DHT22;18374;51.136;3.502;2023-01-23T02:10:30;2.10;99.90
31799;DHT22;18374;51.136;3.502;2023-01-23T02:13:26;2.20;99.90
31799;DHT22;18374;51.136;3.502;2023-01-23T02:16:01;2.20;99.90
31799;DHT22;18374;51.136;3.502;2023-01-23T02:18:34;2.20;99.90
31799;DHT22;18374;51.136;3.502;2023-01-23T02:21:05;2.20;99.90
31799;DHT22;18374;51.136;3.502;2023-01-23T02:26:42;2.20;99.90
31799;DHT22;18374;51.136;3.502;2023-01-23T02:29:13;2.20;99.90
31799;DHT22;18374;51.136;3.502;2023-01-23T02:31:49;2.20;99.90
31799;DHT22;18374;51.136;3.502;2023-01-23T02:34:20;2.20;99.90
31799;DHT22;18374;51.136;3.502;2023-01-23T02:36:50;2.20;99.90
31799;DHT22;18374;51.136;3.502;2023-01-23T02:39:19;2.30;99.90
31799;DHT22;18374;51.136;3.502;2023-01-23T02:41:52;2.30;99.90
31799;DHT22;18374;51.136;3.502;2023-01-23T02:44:27;2.30;99.90
31799;DHT22;18374;51.136;3.502;2023-01-23T02:47:04;2.30;99.90
31799;DHT22;18374;51.136;3.502;2023-01-23T02:49:40;2.30;99.90
31799;DHT22;18374;51.136;3.502;2023-01-23T02:52:10;2.30;99.90
31799;DHT22;18374;51.136;3.502;2023-01-23T02:54:37;2.30;99.90
31799;DHT22;18374;51.136;3.502;2023-01-23T02:57:07;2.30;99.90
31799;DHT22;18374;51.136;3.502;2023-01-23T02:59:35;2.30;99.90
31799;DHT22;18374;51.136;3.502;2023-01-23T03:02:22;2.30;99.90
31799;DHT22;18374;51.136;3.502;2023-01-23T03:04:50;2.30;99.90
31799;DHT22;18374;51.136;3.502;2023-01-23T03:07:19;2.30;99.90
31799;DHT22;18374;51.136;3.502;2023-01-23T03:09:47;2.30;99.90
31799;DHT22;18374;51.136;3.502;2023-01-23T03:12:15;2.40;99.90
31799;DHT22;18374;51.136;3.502;2023-01-23T03:14:43;2.40;99.90
31799;DHT22;18374;51.136;3.502;2023-01-23T03:17:10;2.40;99.90
31799;DHT22;18374;51.136;3.502;2023-01-23T03:19:41;2.40;99.90
31799;DHT22;18374;51.136;3.502;2023-01-23T03:22:09;2.30;99.90
31799;DHT22;18374;51.136;3.502;2023-01-23T03:24:38;2.40;99.90
31799;DHT22;18374;51.136;3.502;2023-01-23T03:27:06;2.40;99.90
31799;DHT22;18374;51.136;3.502;2023-01-23T03:29:42;2.40;99.90
31799;DHT22;18374;51.136;3.502;2023-01-23T03:32:29;2.30;99.90
31799;DHT22;18374;51.136;3.502;2023-01-23T03:34:57;2.30;99.90
31799;DHT22;18374;51.136;3.502;2023-01-23T03:37:26;2.30;99.90
31799;DHT22;18374;51.136;3.502;2023-01-23T03:39:55;2.30;99.90
31799;DHT22;18374;51.136;3.502;2023-01-23T03:42:42;2.30;99.90
31799;DHT22;18374;51.136;3.502;2023-01-23T03:45:12;2.30;99.90
31799;DHT22;18374;51.136;3.502;2023-01-23T03:47:41;2.20;99.90
31799;DHT22;18374;51.136;3.502;2023-01-23T03:50:09;2.20;99.90
31799;DHT22;18374;51.136;3.502;2023-01-23T03:52:38;2.10;99.90
31799;DHT22;18374;51.136;3.502;2023-01-23T03:55:07;2.10;99.90
31799;DHT22;18374;51.136;3.502;2023-01-23T03:57:36;2.10;99.90
31799;DHT22;18374;51.136;3.502;2023-01-23T04:00:19;2.10;99.90
31799;DHT22;18374;51.136;3.502;2023-01-23T04:02:54;2.10;99.90
31799;DHT22;18374;51.136;3.502;2023-01-23T04:05:22;2.00;99.90
31799;DHT22;18374;51.136;3.502;2023-01-23T04:07:49;2.10;99.90
31799;DHT22;18374;51.136;3.502;2023-01-23T04:10:18;2.00;99.90
31799;DHT22;18374;51.136;3.502;2023-01-23T04:12:51;2.00;99.90
31799;DHT22;18374;51.136;3.502;2023-01-23T04:15:19;2.00;99.90
31799;DHT22;18374;51.136;3.502;2023-01-23T04:17:47;2.00;99.90
31799;DHT22;18374;51.136;3.502;2023-01-23T04:20:15;2.00;99.90
31799;DHT22;18374;51.136;3.502;2023-01-23T04:22:43;2.00;99.90
31799;DHT22;18374;51.136;3.502;2023-01-23T04:25:11;2.00;99.90
31799;DHT22;18374;51.136;3.502;2023-01-23T04:27:39;2.00;99.90
31799;DHT22;18374;51.136;3.502;2023-01-23T04:30:08;2.00;99.90
31799;DHT22;18374;51.136;3.502;2023-01-23T04:32:37;2.00;99.90
31799;DHT22;18374;51.136;3.502;2023-01-23T04:35:05;2.00;99.90
31799;DHT22;18374;51.136;3.502;2023-01-23T04:37:35;2.00;99.90
31799;DHT22;18374;51.136;3.502;2023-01-23T04:40:03;2.00;99.90
31799;DHT22;18374;51.136;3.502;2023-01-23T04:42:42;2.00;99.90
31799;DHT22;18374;51.136;3.502;2023-01-23T04:45:19;1.90;99.90
31799;DHT22;18374;51.136;3.502;2023-01-23T04:48:23;2.00;99.90
31799;DHT22;18374;51.136;3.502;2023-01-23T04:50:52;1.90;99.90
31799;DHT22;18374;51.136;3.502;2023-01-23T04:53:20;1.90;99.90
31799;DHT22;18374;51.136;3.502;2023-01-23T04:55:56;1.90;99.90
31799;DHT22;18374;51.136;3.502;2023-01-23T04:58:24;1.90;99.90
31799;DHT22;18374;51.136;3.502;2023-01-23T05:01:01;1.90;99.90
31799;DHT22;18374;51.136;3.502;2023-01-23T05:03:33;1.90;99.90
31799;DHT22;18374;51.136;3.502;2023-01-23T05:06:01;1.80;99.90
31799;DHT22;18374;51.136;3.502;2023-01-23T05:08:29;1.90;99.90
31799;DHT22;18374;51.136;3.502;2023-01-23T05:11:12;1.90;99.90
31799;DHT22;18374;51.136;3.502;2023-01-23T05:13:40;1.90;99.90
31799;DHT22;18374;51.136;3.502;2023-01-23T05:16:08;1.90;99.90
31799;DHT22;18374;51.136;3.502;2023-01-23T05:18:56;2.00;99.90
31799;DHT22;18374;51.136;3.502;2023-01-23T05:21:24;2.00;99.90
31799;DHT22;18374;51.136;3.502;2023-01-23T05:23:51;2.10;99.90
31799;DHT22;18374;51.136;3.502;2023-01-23T05:26:20;2.00;99.90
31799;DHT22;18374;51.136;3.502;2023-01-23T05:28:48;2.00;99.90
31799;DHT22;18374;51.136;3.502;2023-01-23T05:31:16;2.00;99.90
31799;DHT22;18374;51.136;3.502;2023-01-23T05:34:00;2.10;99.90
31799;DHT22;18374;51.136;3.502;2023-01-23T05:36:27;2.00;99.90
31799;DHT22;18374;51.136;3.502;2023-01-23T05:38:55;2.00;99.90
31799;DHT22;18374;51.136;3.502;2023-01-23T05:41:26;2.10;99.90
31799;DHT22;18374;51.136;3.502;2023-01-23T05:44:11;2.10;99.90
31799;DHT22;18374;51.136;3.502;2023-01-23T05:46:52;2.00;99.90
31799;DHT22;18374;51.136;3.502;2023-01-23T05:49:20;2.10;99.90
31799;DHT22;18374;51.136;3.502;2023-01-23T05:51:50;2.10;99.90
31799;DHT22;18374;51.136;3.502;2023-01-23T05:54:18;2.10;99.90
31799;DHT22;18374;51.136;3.502;2023-01-23T05:56:46;2.10;99.90
31799;DHT22;18374;51.136;3.502;2023-01-23T05:59:32;2.10;99.90
31799;DHT22;18374;51.136;3.502;2023-01-23T06:02:18;2.10;99.90
31799;DHT22;18374;51.136;3.502;2023-01-23T06:05:04;2.20;99.90
31799;DHT22;18374;51.136;3.502;2023-01-23T06:07:53;2.20;99.90
31799;DHT22;18374;51.136;3.502;2023-01-23T06:10:20;2.30;99.90
31799;DHT22;18374;51.136;3.502;2023-01-23T06:12:49;2.30;99.90
31799;DHT22;18374;51.136;3.502;2023-01-23T06:15:17;2.30;99.90
31799;DHT22;18374;51.136;3.502;2023-01-23T06:17:46;2.30;99.90
31799;DHT22;18374;51.136;3.502;2023-01-23T06:20:14;2.30;99.90
31799;DHT22;18374;51.136;3.502;2023-01-23T06:22:45;2.30;99.90
31799;DHT22;18374;51.136;3.502;2023-01-23T06:25:13;2.40;99.90
31799;DHT22;18374;51.136;3.502;2023-01-23T06:27:41;2.40;99.90
31799;DHT22;18374;51.136;3.502;2023-01-23T06:30:10;2.40;99.90
31799;DHT22;18374;51.136;3.502;2023-01-23T06:32:44;2.40;99.90
31799;DHT22;18374;51.136;3.502;2023-01-23T06:35:15;2.40;99.90
31799;DHT22;18374;51.136;3.502;2023-01-23T06:37:44;2.30;99.90
31799;DHT22;18374;51.136;3.502;2023-01-23T06:40:15;2.30;99.90
31799;DHT22;18374;51.136;3.502;2023-01-23T06:42:54;2.20;99.90
31799;DHT22;18374;51.136;3.502;2023-01-23T06:45:23;2.20;99.90
31799;DHT22;18374;51.136;3.502;2023-01-23T06:47:51;2.30;99.90
31799;DHT22;18374;51.136;3.502;2023-01-23T06:50:20;2.30;99.90
31799;DHT22;18374;51.136;3.502;2023-01-23T06:52:49;2.20;99.90
31799;DHT22;18374;51.136;3.502;2023-01-23T06:55:17;2.20;99.90
31799;DHT22;18374;51.136;3.502;2023-01-23T06:57:45;2.20;99.90
31799;DHT22;18374;51.136;3.502;2023-01-23T07:00:13;2.20;99.90
31799;DHT22;18374;51.136;3.502;2023-01-23T07:02:42;2.20;99.90
31799;DHT22;18374;51.136;3.502;2023-01-23T07:05:13;2.20;99.90
31799;DHT22;18374;51.136;3.502;2023-01-23T07:07:44;2.20;99.90
31799;DHT22;18374;51.136;3.502;2023-01-23T07:10:12;2.10;99.90
31799;DHT22;18374;51.136;3.502;2023-01-23T07:12:40;2.10;99.90
31799;DHT22;18374;51.136;3.502;2023-01-23T07:15:09;2.20;99.90
31799;DHT22;18374;51.136;3.502;2023-01-23T07:17:39;2.20;99.90
31799;DHT22;18374;51.136;3.502;2023-01-23T07:20:08;2.20;99.90
31799;DHT22;18374;51.136;3.502;2023-01-23T07:22:47;2.20;99.90
31799;DHT22;18374;51.136;3.502;2023-01-23T07:25:16;2.20;99.90
31799;DHT22;18374;51.136;3.502;2023-01-23T07:27:43;2.30;99.90
31799;DHT22;18374;51.136;3.502;2023-01-23T07:30:11;2.30;99.90
31799;DHT22;18374;51.136;3.502;2023-01-23T07:32:39;2.30;99.90
31799;DHT22;18374;51.136;3.502;2023-01-23T07:35:07;2.30;99.90
31799;DHT22;18374;51.136;3.502;2023-01-23T07:37:35;2.30;99.90
31799;DHT22;18374;51.136;3.502;2023-01-23T07:40:03;2.30;99.90
31799;DHT22;18374;51.136;3.502;2023-01-23T07:42:31;2.30;99.90
31799;DHT22;18374;51.136;3.502;2023-01-23T07:44:59;2.30;99.90
31799;DHT22;18374;51.136;3.502;2023-01-23T07:47:27;2.30;99.90
31799;DHT22;18374;51.136;3.502;2023-01-23T07:49:55;2.40;99.90
31799;DHT22;18374;51.136;3.502;2023-01-23T07:52:23;2.30;99.90
31799;DHT22;18374;51.136;3.502;2023-01-23T07:54:50;2.30;99.90
31799;DHT22;18374;51.136;3.502;2023-01-23T07:57:18;2.40;99.90
31799;DHT22;18374;51.136;3.502;2023-01-23T07:59:46;2.40;99.90
31799;DHT22;18374;51.136;3.502;2023-01-23T08:02:14;2.40;99.90
31799;DHT22;18374;51.136;3.502;2023-01-23T08:04:42;2.50;99.90
31799;DHT22;18374;51.136;3.502;2023-01-23T08:07:09;2.50;99.90
31799;DHT22;18374;51.136;3.502;2023-01-23T08:09:37;2.50;99.90
31799;DHT22;18374;51.136;3.502;2023-01-23T08:12:05;2.40;99.90
31799;DHT22;18374;51.136;3.502;2023-01-23T08:14:33;2.40;99.90
31799;DHT22;18374;51.136;3.502;2023-01-23T08:17:00;2.50;99.90
31799;DHT22;18374;51.136;3.502;2023-01-23T08:19:28;2.40;99.90
31799;DHT22;18374;51.136;3.502;2023-01-23T08:21:56;2.40;99.90
31799;DHT22;18374;51.136;3.502;2023-01-23T08:24:24;2.40;99.90
31799;DHT22;18374;51.136;3.502;2023-01-23T08:26:51;2.50;99.90
31799;DHT22;18374;51.136;3.502;2023-01-23T08:29:19;2.40;99.90
31799;DHT22;18374;51.136;3.502;2023-01-23T08:31:47;2.50;99.90
31799;DHT22;18374;51.136;3.502;2023-01-23T08:34:14;2.50;99.90
31799;DHT22;18374;51.136;3.502;2023-01-23T08:36:42;2.50;99.90
31799;DHT22;18374;51.136;3.502;2023-01-23T08:39:10;2.50;99.90
31799;DHT22;18374;51.136;3.502;2023-01-23T08:41:37;2.50;99.90
31799;DHT22;18374;51.136;3.502;2023-01-23T08:44:05;2.50;99.90
31799;DHT22;18374;51.136;3.502;2023-01-23T08:46:33;2.50;99.90
31799;DHT22;18374;51.136;3.502;2023-01-23T08:49:00;2.60;99.90
31799;DHT22;18374;51.136;3.502;2023-01-23T08:51:28;2.60;99.90
31799;DHT22;18374;51.136;3.502;2023-01-23T08:53:56;2.60;99.90
31799;DHT22;18374;51.136;3.502;2023-01-23T08:56:25;2.60;99.90
31799;DHT22;18374;51.136;3.502;2023-01-23T08:58:52;2.60;99.90
31799;DHT22;18374;51.136;3.502;2023-01-23T09:01:22;2.60;99.90
31799;DHT22;18374;51.136;3.502;2023-01-23T09:03:52;2.70;99.90
31799;DHT22;18374;51.136;3.502;2023-01-23T09:06:21;2.60;99.90
31799;DHT22;18374;51.136;3.502;2023-01-23T09:08:49;2.60;99.90
31799;DHT22;18374;51.136;3.502;2023-01-23T09:11:18;2.70;99.90
31799;DHT22;18374;51.136;3.502;2023-01-23T09:13:46;2.70;99.90
31799;DHT22;18374;51.136;3.502;2023-01-23T09:16:14;2.70;99.90
31799;DHT22;18374;51.136;3.502;2023-01-23T09:18:42;2.80;99.90
31799;DHT22;18374;51.136;3.502;2023-01-23T09:21:12;2.80;99.90
31799;DHT22;18374;51.136;3.502;2023-01-23T09:23:41;2.80;99.90
31799;DHT22;18374;51.136;3.502;2023-01-23T09:26:11;2.90;99.90
31799;DHT22;18374;51.136;3.502;2023-01-23T09:28:41;2.90;99.90
31799;DHT22;18374;51.136;3.502;2023-01-23T09:31:11;2.90;99.90
31799;DHT22;18374;51.136;3.502;2023-01-23T09:33:40;2.90;99.90
31799;DHT22;18374;51.136;3.502;2023-01-23T09:36:09;2.90;99.90
31799;DHT22;18374;51.136;3.502;2023-01-23T09:38:37;3.00;99.90
31799;DHT22;18374;51.136;3.502;2023-01-23T09:41:16;3.00;99.90
31799;DHT22;18374;51.136;3.502;2023-01-23T09:43:56;3.00;99.90
31799;DHT22;18374;51.136;3.502;2023-01-23T09:49:53;3.10;99.90
31799;DHT22;18374;51.136;3.502;2023-01-23T09:52:33;3.10;99.90
31799;DHT22;18374;51.136;3.502;2023-01-23T09:57:38;3.10;99.90
31799;DHT22;18374;51.136;3.502;2023-01-23T10:02:47;3.10;99.90
31799;DHT22;18374;51.136;3.502;2023-01-23T10:05:16;3.20;99.90
31799;DHT22;18374;51.136;3.502;2023-01-23T10:08:03;3.20;99.90
31799;DHT22;18374;51.136;3.502;2023-01-23T10:11:07;3.20;99.90
31799;DHT22;18374;51.136;3.502;2023-01-23T10:23:56;3.40;99.90
31799;DHT22;18374;51.136;3.502;2023-01-23T10:26:03;3.30;99.90
31799;DHT22;18374;51.136;3.502;2023-01-23T10:28:34;3.40;99.90
31799;DHT22;18374;51.136;3.502;2023-01-23T10:31:21;3.40;99.90
31799;DHT22;18374;51.136;3.502;2023-01-23T10:34:12;3.40;99.90
31799;DHT22;18374;51.136;3.502;2023-01-23T10:36:58;3.40;99.90
31799;DHT22;18374;51.136;3.502;2023-01-23T10:39:36;3.50;99.90
31799;DHT22;18374;51.136;3.502;2023-01-23T10:42:10;3.60;99.90
31799;DHT22;18374;51.136;3.502;2023-01-23T10:44:39;3.60;99.90
31799;DHT22;18374;51.136;3.502;2023-01-23T10:47:42;3.70;99.90
31799;DHT22;18374;51.136;3.502;2023-01-23T10:50:36;3.70;99.90
31799;DHT22;18374;51.136;3.502;2023-01-23T10:53:10;3.60;99.90
31799;DHT22;18374;51.136;3.502;2023-01-23T10:55:46;3.70;99.90
31799;DHT22;18374;51.136;3.502;2023-01-23T10:58:37;3.70;99.90
31799;DHT22;18374;51.136;3.502;2023-01-23T11:01:26;3.80;99.90
31799;DHT22;18374;51.136;3.502;2023-01-23T11:03:56;3.80;99.90
31799;DHT22;18374;51.136;3.502;2023-01-23T11:06:36;3.70;99.90
31799;DHT22;18374;51.136;3.502;2023-01-23T11:09:17;3.70;99.90
31799;DHT22;18374;51.136;3.502;2023-01-23T11:11:59;3.70;99.90
31799;DHT22;18374;51.136;3.502;2023-01-23T11:14:28;3.80;99.90
31799;DHT22;18374;51.136;3.502;2023-01-23T11:17:02;3.90;99.90
31799;DHT22;18374;51.136;3.502;2023-01-23T11:19:35;4.00;99.90
31799;DHT22;18374;51.136;3.502;2023-01-23T11:22:03;4.10;99.90
31799;DHT22;18374;51.136;3.502;2023-01-23T11:24:36;4.10;99.90
31799;DHT22;18374;51.136;3.502;2023-01-23T11:30:12;4.20;99.90
31799;DHT22;18374;51.136;3.502;2023-01-23T11:33:48;4.10;99.90
31799;DHT22;18374;51.136;3.502;2023-01-23T11:42:12;4.30;99.90
31799;DHT22;18374;51.136;3.502;2023-01-23T11:44:40;4.30;99.90
31799;DHT22;18374;51.136;3.502;2023-01-23T12:02:27;4.40;99.90
31799;DHT22;18374;51.136;3.502;2023-01-23T12:05:27;4.50;99.90
31799;DHT22;18374;51.136;3.502;2023-01-23T12:08:23;4.60;99.90
31799;DHT22;18374;51.136;3.502;2023-01-23T12:10:55;4.60;99.90
31799;DHT22;18374;51.136;3.502;2023-01-23T12:13:38;4.70;99.90
31799;DHT22;18374;51.136;3.502;2023-01-23T12:22:03;5.00;99.90
31799;DHT22;18374;51.136;3.502;2023-01-23T12:27:48;4.70;99.90
31799;DHT22;18374;51.136;3.502;2023-01-23T12:37:08;4.40;99.90
31799;DHT22;18374;51.136;3.502;2023-01-23T12:40:32;4.50;99.90
31799;DHT22;18374;51.136;3.502;2023-01-23T12:43:33;4.50;99.90
31799;DHT22;18374;51.136;3.502;2023-01-23T12:46:12;4.40;99.90
31799;DHT22;18374;51.136;3.502;2023-01-23T12:51:59;4.50;99.90
31799;DHT22;18374;51.136;3.502;2023-01-23T12:54:42;4.50;99.90
31799;DHT22;18374;51.136;3.502;2023-01-23T12:57:18;4.50;99.90
31799;DHT22;18374;51.136;3.502;2023-01-23T13:06:40;4.60;99.90
31799;DHT22;18374;51.136;3.502;2023-01-23T13:12:24;4.60;99.90
31799;DHT22;18374;51.136;3.502;2023-01-23T13:18:23;4.50;99.90
31799;DHT22;18374;51.136;3.502;2023-01-23T13:20:58;4.50;99.90
31799;DHT22;18374;51.136;3.502;2023-01-23T13:23:45;4.50;99.90
31799;DHT22;18374;51.136;3.502;2023-01-23T13:28:47;4.40;99.90
31799;DHT22;18374;51.136;3.502;2023-01-23T13:36:48;4.50;99.90
31799;DHT22;18374;51.136;3.502;2023-01-23T13:41:51;4.60;99.90
31799;DHT22;18374;51.136;3.502;2023-01-23T13:51:19;4.70;99.90
31799;DHT22;18374;51.136;3.502;2023-01-23T13:54:02;4.70;99.90
31799;DHT22;18374;51.136;3.502;2023-01-23T13:57:04;4.70;99.90
31799;DHT22;18374;51.136;3.502;2023-01-23T13:59:47;4.80;99.90
31799;DHT22;18374;51.136;3.502;2023-01-23T14:02:45;4.80;99.90
31799;DHT22;18374;51.136;3.502;2023-01-23T14:06:05;4.70;99.90
31799;DHT22;18374;51.136;3.502;2023-01-23T14:08:52;4.60;99.90
31799;DHT22;18374;51.136;3.502;2023-01-23T14:11:36;4.70;99.90
31799;DHT22;18374;51.136;3.502;2023-01-23T14:14:18;4.70;99.90
31799;DHT22;18374;51.136;3.502;2023-01-23T14:17:20;4.60;99.90
31799;DHT22;18374;51.136;3.502;2023-01-23T14:20:10;4.60;99.90
31799;DHT22;18374;51.136;3.502;2023-01-23T14:22:53;4.60;99.90
31799;DHT22;18374;51.136;3.502;2023-01-23T14:25:21;4.60;99.90
31799;DHT22;18374;51.136;3.502;2023-01-23T14:28:01;4.50;99.90
31799;DHT22;18374;51.136;3.502;2023-01-23T14:30:30;4.50;99.90
31799;DHT22;18374;51.136;3.502;2023-01-23T14:32:58;4.40;99.90
31799;DHT22;18374;51.136;3.502;2023-01-23T14:35:31;4.40;99.90
31799;DHT22;18374;51.136;3.502;2023-01-23T14:38:03;4.50;99.90
31799;DHT22;18374;51.136;3.502;2023-01-23T14:40:32;4.50;99.90
31799;DHT22;18374;51.136;3.502;2023-01-23T14:43:20;4.50;99.90
31799;DHT22;18374;51.136;3.502;2023-01-23T14:45:59;4.40;99.90
31799;DHT22;18374;51.136;3.502;2023-01-23T14:48:32;4.30;99.90
31799;DHT22;18374;51.136;3.502;2023-01-23T14:51:23;4.30;99.90
31799;DHT22;18374;51.136;3.502;2023-01-23T14:56:33;4.20;99.90
31799;DHT22;18374;51.136;3.502;2023-01-23T14:59:06;4.20;99.90
31799;DHT22;18374;51.136;3.502;2023-01-23T15:01:34;4.10;99.90
31799;DHT22;18374;51.136;3.502;2023-01-23T15:04:05;4.00;99.90
31799;DHT22;18374;51.136;3.502;2023-01-23T15:06:34;4.00;99.90
31799;DHT22;18374;51.136;3.502;2023-01-23T15:09:12;4.00;99.90
31799;DHT22;18374;51.136;3.502;2023-01-23T15:11:43;3.90;99.90
31799;DHT22;18374;51.136;3.502;2023-01-23T15:14:34;4.10;99.90
31799;DHT22;18374;51.136;3.502;2023-01-23T15:17:15;4.10;99.90
31799;DHT22;18374;51.136;3.502;2023-01-23T15:19:52;4.00;99.90
31799;DHT22;18374;51.136;3.502;2023-01-23T15:22:29;4.00;99.90
31799;DHT22;18374;51.136;3.502;2023-01-23T15:25:29;4.00;99.90
31799;DHT22;18374;51.136;3.502;2023-01-23T15:27:59;4.00;99.90
31799;DHT22;18374;51.136;3.502;2023-01-23T15:30:36;3.90;99.90
31799;DHT22;18374;51.136;3.502;2023-01-23T15:33:29;3.90;99.90
31799;DHT22;18374;51.136;3.502;2023-01-23T15:36:17;3.90;99.90
31799;DHT22;18374;51.136;3.502;2023-01-23T15:38:55;3.80;99.90
31799;DHT22;18374;51.136;3.502;2023-01-23T15:41:48;3.80;99.90
31799;DHT22;18374;51.136;3.502;2023-01-23T15:44:37;3.80;99.90
31799;DHT22;18374;51.136;3.502;2023-01-23T15:47:07;3.80;99.90
31799;DHT22;18374;51.136;3.502;2023-01-23T15:49:37;3.90;99.90
31799;DHT22;18374;51.136;3.502;2023-01-23T15:52:25;3.80;99.90
31799;DHT22;18374;51.136;3.502;2023-01-23T15:54:59;3.70;99.90
31799;DHT22;18374;51.136;3.502;2023-01-23T15:57:30;3.60;99.90
31799;DHT22;18374;51.136;3.502;2023-01-23T15:59:57;3.60;99.90
31799;DHT22;18374;51.136;3.502;2023-01-23T16:02:26;3.50;99.90
31799;DHT22;18374;51.136;3.502;2023-01-23T16:04:59;3.50;99.90
31799;DHT22;18374;51.136;3.502;2023-01-23T16:10:22;3.30;99.90
31799;DHT22;18374;51.136;3.502;2023-01-23T16:12:53;3.30;99.90
31799;DHT22;18374;51.136;3.502;2023-01-23T16:15:27;3.30;99.90
31799;DHT22;18374;51.136;3.502;2023-01-23T16:17:56;3.30;99.90
31799;DHT22;18374;51.136;3.502;2023-01-23T16:20:35;3.30;99.90
31799;DHT22;18374;51.136;3.502;2023-01-23T16:23:15;3.30;99.90
31799;DHT22;18374;51.136;3.502;2023-01-23T16:25:48;3.30;99.90
31799;DHT22;18374;51.136;3.502;2023-01-23T16:28:21;3.30;99.90
31799;DHT22;18374;51.136;3.502;2023-01-23T16:30:50;3.30;99.90
31799;DHT22;18374;51.136;3.502;2023-01-23T16:33:19;3.30;99.90
31799;DHT22;18374;51.136;3.502;2023-01-23T16:35:48;3.40;99.90
31799;DHT22;18374;51.136;3.502;2023-01-23T16:38:22;3.40;99.90
31799;DHT22;18374;51.136;3.502;2023-01-23T16:40:52;3.40;99.90
31799;DHT22;18374;51.136;3.502;2023-01-23T16:43:21;3.40;99.90
31799;DHT22;18374;51.136;3.502;2023-01-23T16:45:49;3.50;99.90
31799;DHT22;18374;51.136;3.502;2023-01-23T16:48:21;3.50;99.90
31799;DHT22;18374;51.136;3.502;2023-01-23T16:51:17;3.50;99.90
31799;DHT22;18374;51.136;3.502;2023-01-23T16:53:56;3.50;99.90
31799;DHT22;18374;51.136;3.502;2023-01-23T16:56:38;3.50;99.90
31799;DHT22;18374;51.136;3.502;2023-01-23T16:59:14;3.50;99.90
31799;DHT22;18374;51.136;3.502;2023-01-23T17:01:46;3.50;99.90
31799;DHT22;18374;51.136;3.502;2023-01-23T17:04:18;3.50;99.90
31799;DHT22;18374;51.136;3.502;2023-01-23T17:06:47;3.50;99.90
31799;DHT22;18374;51.136;3.502;2023-01-23T17:09:15;3.50;99.90
31799;DHT22;18374;51.136;3.502;2023-01-23T17:11:52;3.50;99.90
31799;DHT22;18374;51.136;3.502;2023-01-23T17:14:30;3.50;99.90
31799;DHT22;18374;51.136;3.502;2023-01-23T17:17:04;3.50;99.90
31799;DHT22;18374;51.136;3.502;2023-01-23T17:19:37;3.50;99.90
31799;DHT22;18374;51.136;3.502;2023-01-23T17:22:21;3.50;99.90
31799;DHT22;18374;51.136;3.502;2023-01-23T17:24:50;3.60;99.90
31799;DHT22;18374;51.136;3.502;2023-01-23T17:27:18;3.60;99.90
31799;DHT22;18374;51.136;3.502;2023-01-23T17:29:46;3.60;99.90
31799;DHT22;18374;51.136;3.502;2023-01-23T17:32:35;3.60;99.90
31799;DHT22;18374;51.136;3.502;2023-01-23T17:35:06;3.60;99.90
31799;DHT22;18374;51.136;3.502;2023-01-23T17:37:35;3.60;99.90
31799;DHT22;18374;51.136;3.502;2023-01-23T17:40:03;3.70;99.90
31799;DHT22;18374;51.136;3.502;2023-01-23T17:42:31;3.70;99.90
31799;DHT22;18374;51.136;3.502;2023-01-23T17:44:59;3.70;99.90
31799;DHT22;18374;51.136;3.502;2023-01-23T17:47:27;3.70;99.90
31799;DHT22;18374;51.136;3.502;2023-01-23T17:49:55;3.70;99.90
31799;DHT22;18374;51.136;3.502;2023-01-23T17:52:23;3.70;99.90
31799;DHT22;18374;51.136;3.502;2023-01-23T17:54:53;3.70;99.90
31799;DHT22;18374;51.136;3.502;2023-01-23T17:57:21;3.80;99.90
31799;DHT22;18374;51.136;3.502;2023-01-23T17:59:48;3.80;99.90
31799;DHT22;18374;51.136;3.502;2023-01-23T18:02:23;3.80;99.90
31799;DHT22;18374;51.136;3.502;2023-01-23T18:04:53;3.90;99.90
31799;DHT22;18374;51.136;3.502;2023-01-23T18:07:22;3.90;99.90